Time;durP1;ratioP1;P1;durP2;ratioP2;P2;SDS_P1;SDS_P2;PMS_P1;PMS_P2;Temp;Humidity;BMP_temperature;BMP_pressure;BME280_temperature;BME280_humidity;BME280_pressure;Samples;Min_cycle;Max_cycle;Signal;HPM_P1;HPM_P2
2022/01/26 00:06:46;;;;;;;;;14.25;13.50;;;;;20.42;31.65;103051.81;5057988;28;50991;-47
2022/01/26 00:09:12;;;;;;;;;20.25;15.75;;;;;20.41;32.00;103052.88;5067491;28;51001;-48
2022/01/26 00:11:38;;;;;;;;;14.00;12.00;;;;;20.40;32.04;103056.66;5059363;28;51697;-49
2022/01/26 00:14:10;;;;;;;;;15.00;15.00;;;;;20.39;31.93;103065.94;5068349;27;52017;-48
2022/01/26 00:16:45;;;;;;;;;14.00;11.00;;;;;20.39;31.83;103063.19;5060232;28;50944;-52
2022/01/26 00:19:18;;;;;;;;;13.50;11.25;;;;;20.37;32.07;103068.00;5070483;27;51022;-48
2022/01/26 00:21:54;;;;;;;;;16.00;13.50;;;;;20.35;31.65;103061.81;5065951;28;51940;-48
2022/01/26 00:24:37;;;;;;;;;13.00;11.50;;;;;20.33;32.13;103056.47;5068528;28;51448;-43
2022/01/26 00:27:35;;;;;;;;;16.50;13.50;;;;;20.33;32.15;103061.13;5066538;28;51091;-44
2022/01/26 00:30:00;;;;;;;;;14.75;12.00;;;;;20.32;31.97;103059.38;5062231;28;51237;-42
2022/01/26 00:40:43;;;;;;;;;10.50;8.50;;;;;20.26;32.00;103071.94;5079942;28;50972;-45
2022/01/26 00:45:38;;;;;;;;;12.75;11.75;;;;;20.25;32.14;103070.22;5067396;27;51082;-45
2022/01/26 00:48:07;;;;;;;;;16.25;12.75;;;;;20.24;32.12;103070.38;5060854;28;51091;-44
2022/01/26 00:50:34;;;;;;;;;15.00;13.25;;;;;20.23;32.06;103065.91;5068355;28;51550;-44
2022/01/26 00:53:00;;;;;;;;;11.25;10.25;;;;;20.22;31.84;103076.06;5062828;28;51951;-44
2022/01/26 00:55:26;;;;;;;;;11.00;10.50;;;;;20.21;32.14;103065.19;5065563;27;52678;-42
2022/01/26 00:57:51;;;;;;;;;13.75;12.25;;;;;20.21;31.55;103070.69;5061467;28;51192;-44
2022/01/26 01:00:24;;;;;;;;;17.25;13.75;;;;;20.18;32.35;103069.16;5070795;28;50915;-43
2022/01/26 01:02:51;;;;;;;;;14.50;11.50;;;;;20.17;32.28;103067.44;5077903;28;51931;-45
2022/01/26 01:05:20;;;;;;;;;12.00;10.25;;;;;20.17;31.95;103065.53;5069740;27;51412;-45
2022/01/26 01:07:47;;;;;;;;;14.50;12.75;;;;;20.16;31.83;103074.81;5068048;28;51111;-44
2022/01/26 01:10:16;;;;;;;;;10.75;8.25;;;;;20.15;31.83;103066.75;5061486;28;51170;-43
2022/01/26 01:12:43;;;;;;;;;13.75;10.75;;;;;20.13;31.92;103075.16;5060296;28;52602;-49
2022/01/26 01:15:09;;;;;;;;;9.75;9.00;;;;;20.12;31.58;103061.59;5064711;28;50967;-42
2022/01/26 01:17:41;;;;;;;;;14.25;13.00;;;;;20.11;32.17;103060.72;5063712;28;51119;-42
2022/01/26 01:28:17;;;;;;;;;13.75;9.50;;;;;20.06;31.86;103057.59;5076089;28;51127;-43
2022/01/26 01:30:47;;;;;;;;;13.75;11.00;;;;;20.05;32.21;103058.63;5078993;28;51216;-42
2022/01/26 01:33:18;;;;;;;;;8.25;7.50;;;;;20.04;32.09;103067.03;5069055;28;52087;-45
2022/01/26 01:35:44;;;;;;;;;9.00;9.00;;;;;20.03;32.15;103068.06;5077528;27;51095;-43
2022/01/26 01:38:19;;;;;;;;;11.00;9.00;;;;;20.02;32.40;103069.97;5063605;28;51218;-44
2022/01/26 01:40:47;;;;;;;;;9.50;8.50;;;;;20.00;32.06;103061.00;5069002;28;51961;-44
2022/01/26 01:43:15;;;;;;;;;13.00;12.25;;;;;20.00;32.16;103061.00;5069626;28;52051;-44
2022/01/26 01:45:46;;;;;;;;;12.25;10.75;;;;;19.99;32.21;103069.41;5077712;27;51325;-45
2022/01/26 01:48:15;;;;;;;;;11.25;9.75;;;;;19.99;32.24;103066.66;5055842;28;51042;-43
2022/01/26 01:50:42;;;;;;;;;11.75;10.00;;;;;19.98;31.96;103074.06;5069974;28;51138;-43
2022/01/26 01:53:12;;;;;;;;;10.50;9.00;;;;;19.96;32.14;103072.50;5058679;28;51044;-43
2022/01/26 01:55:40;;;;;;;;;8.75;8.25;;;;;19.96;31.97;103080.75;5062344;28;51075;-43
2022/01/26 01:58:06;;;;;;;;;9.25;7.00;;;;;19.95;32.17;103079.03;5075509;28;51280;-45
2022/01/26 02:00:31;;;;;;;;;10.75;10.00;;;;;19.92;32.01;103083.00;5059147;28;51211;-49
2022/01/26 02:02:57;;;;;;;;;10.75;9.00;;;;;19.93;31.96;103083.84;5074632;28;51278;-43
2022/01/26 02:05:23;;;;;;;;;15.00;12.50;;;;;19.92;32.36;103076.63;5077215;27;51359;-43
2022/01/26 02:07:48;;;;;;;;;9.00;8.25;;;;;19.91;32.02;103084.03;5072197;28;51070;-46
2022/01/26 02:10:14;;;;;;;;;9.75;6.50;;;;;19.89;32.43;103083.28;5060969;28;51071;-45
2022/01/26 02:12:44;;;;;;;;;9.75;8.75;;;;;19.89;32.10;103083.28;5074679;28;51027;-44
2022/01/26 02:15:16;;;;;;;;;11.00;9.25;;;;;19.88;32.28;103084.31;5063419;28;51333;-43
2022/01/26 02:20:41;;;;;;;;;11.25;10.75;;;;;19.85;32.05;103087.41;5059355;28;51012;-44
2022/01/26 02:50:56;;;;;;;;;10.00;10.00;;;;;19.76;32.24;103085.66;5059488;28;51051;-43
2022/01/26 02:53:30;;;;;;;;;9.75;8.50;;;;;19.74;32.42;103077.56;5074118;28;51314;-43
2022/01/26 02:56:04;;;;;;;;;8.75;8.25;;;;;19.74;32.33;103080.31;5070340;28;51776;-45
2022/01/26 03:01:46;;;;;;;;;10.75;8.50;;;;;19.72;32.33;103067.75;5014587;28;51097;-44
2022/01/26 03:06:46;;;;;;;;;7.50;6.75;;;;;19.70;32.09;103058.81;5041603;28;51079;-46
2022/01/26 03:09:15;;;;;;;;;11.25;8.25;;;;;19.69;32.32;103063.41;5090112;27;51224;-47
2022/01/26 03:11:43;;;;;;;;;10.50;7.75;;;;;19.68;32.35;103055.34;5068107;28;50991;-46
2022/01/26 03:14:24;;;;;;;;;9.50;8.25;;;;;19.68;32.11;103055.34;5065767;28;51206;-46
2022/01/26 03:16:56;;;;;;;;;9.25;8.00;;;;;19.67;32.54;103048.13;5073168;27;53166;-45
2022/01/26 03:19:32;;;;;;;;;13.50;11.00;;;;;19.65;32.28;103056.53;5068626;27;51106;-44
2022/01/26 03:29:59;;;;;;;;;7.75;7.75;;;;;19.62;32.39;103058.75;5057812;28;51366;-46
2022/01/26 03:35:19;;;;;;;;;8.25;6.50;;;;;19.60;32.47;103054.28;5074992;27;50951;-45
2022/01/26 03:37:54;;;;;;;;;11.75;9.75;;;;;19.60;32.29;103042.44;5057150;28;50953;-47
2022/01/26 03:40:28;;;;;;;;;10.00;6.25;;;;;19.58;32.33;103042.56;5068035;28;50956;-46
2022/01/26 03:42:53;;;;;;;;;9.25;8.00;;;;;19.58;32.55;103048.06;5051957;28;51059;-44
2022/01/26 03:45:19;;;;;;;;;9.00;9.00;;;;;19.58;32.29;103041.72;5057003;28;50887;-46
2022/01/26 03:47:44;;;;;;;;;8.50;8.50;;;;;19.56;32.23;103044.63;5063222;28;50980;-42
2022/01/26 03:50:10;;;;;;;;;8.00;5.75;;;;;19.56;32.27;103044.63;5065349;28;51186;-60
2022/01/26 03:52:36;;;;;;;;;9.00;7.00;;;;;19.55;32.32;103056.66;5069358;28;51597;-46
2022/01/26 03:55:02;;;;;;;;;9.00;7.25;;;;;19.55;32.32;103053.91;5076485;28;51035;-47
2022/01/26 03:57:27;;;;;;;;;10.00;10.00;;;;;19.55;32.28;103064.00;5067873;28;51040;-45
2022/01/26 03:59:53;;;;;;;;;12.50;11.25;;;;;19.54;31.70;103060.41;5072164;28;51070;-46
2022/01/26 04:02:18;;;;;;;;;18.25;15.25;;;;;19.53;31.70;103057.81;5068173;28;51306;-47
2022/01/26 04:04:49;;;;;;;;;19.50;19.50;;;;;19.52;31.03;103056.97;5064376;28;51102;-47
2022/01/26 04:07:14;;;;;;;;;21.25;19.50;;;;;19.49;31.02;103067.44;5063090;28;51711;-45
2022/01/26 04:09:40;;;;;;;;;23.25;20.50;;;;;19.47;30.83;103056.56;5056635;28;50912;-47
2022/01/26 04:12:06;;;;;;;;;25.75;23.50;;;;;19.45;30.65;103052.25;5065426;28;51045;-51
2022/01/26 04:14:33;;;;;;;;;27.00;26.00;;;;;19.42;30.74;103063.59;5061548;28;50969;-44
2022/01/26 04:16:59;;;;;;;;;33.75;23.50;;;;;19.39;30.29;103056.53;5066048;28;51992;-44
2022/01/26 04:19:26;;;;;;;;;29.00;26.50;;;;;19.36;30.32;103054.09;5068861;28;51055;-46
2022/01/26 04:26:48;;;;;;;;;30.25;26.75;;;;;19.26;30.06;103050.59;5062714;28;51675;-46
2022/01/26 04:29:20;;;;;;;;;28.50;23.75;;;;;19.23;29.75;103050.91;5056310;28;51157;-46
2022/01/26 04:31:46;;;;;;;;;36.50;31.00;;;;;19.20;29.85;103060.34;5072168;28;51156;-47
2022/01/26 04:34:11;;;;;;;;;37.00;30.75;;;;;19.18;29.74;103053.31;5067585;28;51324;-44
2022/01/26 04:36:44;;;;;;;;;35.75;27.50;;;;;19.14;29.52;103050.00;5057166;28;51207;-45
2022/01/26 04:39:14;;;;;;;;;32.50;29.75;;;;;19.11;29.55;103049.47;5071647;28;50944;-45
2022/01/26 04:41:46;;;;;;;;;35.00;33.25;;;;;19.08;29.38;103052.53;5055514;28;51199;-44
2022/01/26 04:44:21;;;;;;;;;28.25;22.25;;;;;19.04;29.41;103046.47;5076122;28;51374;-45
2022/01/26 04:46:48;;;;;;;;;36.00;28.75;;;;;19.00;29.39;103043.19;5058568;28;53046;-44
2022/01/26 04:49:13;;;;;;;;;42.00;33.00;;;;;18.99;29.38;103037.88;5070750;28;50973;-48
2022/01/26 04:51:39;;;;;;;;;43.50;35.00;;;;;18.96;29.20;103040.91;5070531;28;51012;-46
2022/01/26 04:54:04;;;;;;;;;32.00;28.75;;;;;18.92;29.53;103043.13;5072413;27;51167;-45
2022/01/26 04:56:29;;;;;;;;;33.25;30.75;;;;;18.92;29.38;103050.50;5067596;28;51926;-47
2022/01/26 04:58:55;;;;;;;;;33.75;29.00;;;;;18.89;29.29;103048.94;5075591;27;52030;-44
2022/01/26 05:01:20;;;;;;;;;37.50;31.25;;;;;18.86;29.46;103043.78;5076031;28;51107;-46
2022/01/26 05:03:45;;;;;;;;;37.75;32.25;;;;;18.83;29.35;103038.59;5078892;28;51315;-52
2022/01/26 05:06:11;;;;;;;;;37.25;33.50;;;;;18.81;29.24;103037.03;5068143;28;51847;-45
2022/01/26 05:08:37;;;;;;;;;38.00;31.25;;;;;18.79;29.13;103047.31;5073707;28;51562;-45
2022/01/26 05:11:04;;;;;;;;;41.50;34.75;;;;;18.77;28.98;103038.38;5061079;28;50846;-46
2022/01/26 05:13:29;;;;;;;;;36.50;31.25;;;;;18.73;29.00;103032.31;5075921;27;51110;-47
2022/01/26 05:15:54;;;;;;;;;38.25;32.75;;;;;18.70;28.84;103032.63;5071237;28;52815;-47
2022/01/26 05:18:20;;;;;;;;;36.75;29.50;;;;;18.69;28.90;103030.91;5075183;28;51037;-46
2022/01/26 05:20:45;;;;;;;;;37.00;32.50;;;;;18.65;28.89;103037.72;5060119;28;51274;-45
2022/01/26 05:23:10;;;;;;;;;37.50;33.50;;;;;18.63;28.88;103037.84;5059781;28;51206;-44
2022/01/26 05:25:36;;;;;;;;;43.25;32.50;;;;;18.60;28.94;103037.31;5065954;28;52618;-44
2022/01/26 05:28:01;;;;;;;;;38.50;34.25;;;;;18.59;28.89;103041.09;5069478;28;51017;-46
2022/01/26 05:30:27;;;;;;;;;41.00;30.00;;;;;18.56;28.86;103031.28;5069893;28;51095;-48
2022/01/26 05:32:53;;;;;;;;;42.00;34.75;;;;;18.54;28.94;103029.69;5078659;28;51145;-45
2022/01/26 05:35:19;;;;;;;;;40.75;29.25;;;;;18.51;28.88;103032.75;5077928;27;51092;-44
2022/01/26 05:37:44;;;;;;;;;43.00;32.00;;;;;18.49;28.92;103021.09;5069167;28;51121;-44
2022/01/26 05:40:11;;;;;;;;;41.25;33.75;;;;;18.47;28.82;103021.25;5069166;28;51131;-45
2022/01/26 05:42:37;;;;;;;;;38.00;33.25;;;;;18.44;29.04;103011.47;5078735;28;51344;-45
2022/01/26 05:45:07;;;;;;;;;44.25;33.00;;;;;18.43;29.04;103001.47;5074578;27;52456;-45
2022/01/26 05:47:33;;;;;;;;;30.75;25.25;;;;;18.43;29.34;103012.44;5069726;28;51125;-45
2022/01/26 05:50:00;;;;;;;;;30.50;29.75;;;;;18.44;29.49;103016.06;5073740;28;51157;-49
2022/01/26 05:52:25;;;;;;;;;37.50;28.75;;;;;18.45;29.35;103010.44;5084070;27;51032;-45
2022/01/26 05:54:51;;;;;;;;;29.25;24.50;;;;;18.47;29.38;103013.00;5059307;28;51561;-45
2022/01/26 05:57:16;;;;;;;;;38.75;25.00;;;;;18.50;29.89;103014.56;5064692;28;50871;-47
2022/01/26 05:59:42;;;;;;;;;24.25;19.25;;;;;18.53;29.56;103006.03;5078914;28;51589;-60
2022/01/26 06:02:07;;;;;;;;;18.75;14.00;;;;;18.55;29.83;103012.22;5062761;28;51160;-46
2022/01/26 06:04:32;;;;;;;;;24.00;20.50;;;;;18.57;29.87;103021.16;5070443;28;51132;-47
2022/01/26 06:06:58;;;;;;;;;23.50;18.50;;;;;18.60;30.03;103020.84;5063865;28;50964;-48
2022/01/26 06:09:24;;;;;;;;;25.25;20.75;;;;;18.67;30.07;103019.25;5077475;28;52377;-48
2022/01/26 06:11:49;;;;;;;;;24.50;21.50;;;;;18.77;30.16;103027.41;5077371;28;51082;-48
2022/01/26 06:14:15;;;;;;;;;21.25;19.50;;;;;18.86;30.14;103027.31;5060796;28;51320;-48
2022/01/26 06:16:40;;;;;;;;;22.50;21.00;;;;;18.95;29.97;103026.31;5074128;28;50947;-48
2022/01/26 06:19:05;;;;;;;;;17.00;15.50;;;;;19.05;30.13;103031.72;5069086;28;51087;-49
2022/01/26 06:21:31;;;;;;;;;20.00;14.50;;;;;19.16;30.11;103038.84;5061348;28;51439;-48
2022/01/26 06:23:57;;;;;;;;;18.50;16.50;;;;;19.28;30.08;103045.81;5058829;28;51800;-48
2022/01/26 06:26:23;;;;;;;;;15.00;14.00;;;;;19.36;30.16;103051.34;5063979;28;51023;-47
2022/01/26 06:28:48;;;;;;;;;20.25;16.75;;;;;19.43;29.80;103057.94;5061063;27;51171;-50
2022/01/26 06:31:16;;;;;;;;;19.00;13.00;;;;;19.51;30.46;103060.75;5078098;28;51186;-46
2022/01/26 06:33:43;;;;;;;;;15.50;14.00;;;;;19.59;30.20;103069.06;5076256;28;51806;-48
2022/01/26 06:36:12;;;;;;;;;17.75;15.25;;;;;19.69;30.30;103079.06;5075299;28;52958;-49
2022/01/26 06:38:40;;;;;;;;;18.00;14.75;;;;;19.76;29.95;103082.91;5075921;27;51134;-51
2022/01/26 06:41:06;;;;;;;;;20.00;16.25;;;;;19.83;30.26;103079.34;5076847;28;51162;-48
2022/01/26 06:43:32;;;;;;;;;19.25;14.75;;;;;19.88;30.20;103079.69;5076098;27;52301;-49
2022/01/26 06:46:04;;;;;;;;;19.75;13.75;;;;;19.93;30.36;103081.97;5076287;28;51539;-46
2022/01/26 06:51:14;;;;;;;;;15.50;13.25;;;;;20.05;30.55;103096.28;5074241;28;50964;-46
2022/01/26 06:53:40;;;;;;;;;15.00;12.75;;;;;20.10;30.56;103093.88;5058541;28;51090;-49
2022/01/26 06:56:06;;;;;;;;;16.25;13.75;;;;;20.15;30.72;103097.00;5058669;28;50999;-49
2022/01/26 06:58:31;;;;;;;;;14.50;11.75;;;;;20.21;31.05;103098.22;5059864;28;50942;-47
2022/01/26 07:00:57;;;;;;;;;15.25;13.50;;;;;20.27;30.72;103105.81;5058939;28;51054;-47
2022/01/26 07:03:24;;;;;;;;;16.25;13.25;;;;;20.31;30.96;103087.94;5061985;28;51875;-47
2022/01/26 07:05:49;;;;;;;;;16.00;14.00;;;;;20.34;30.93;103093.97;5077779;27;51277;-46
2022/01/26 07:08:14;;;;;;;;;17.25;15.75;;;;;20.39;30.81;103088.81;5075320;28;50970;-47
2022/01/26 07:10:41;;;;;;;;;12.25;11.50;;;;;20.43;30.97;103098.53;5067947;28;51741;-45
2022/01/26 07:13:06;;;;;;;;;18.25;16.50;;;;;20.47;30.85;103090.78;5062105;28;51093;-49
2022/01/26 07:23:46;;;;;;;;;13.75;12.00;;;;;20.64;31.03;103072.41;5060820;28;51455;-47
2022/01/26 07:26:12;;;;;;;;;12.25;10.75;;;;;20.70;30.76;103074.47;5067776;28;51114;-46
2022/01/26 07:28:39;;;;;;;;;12.25;11.75;;;;;20.73;31.08;103082.38;5066177;27;50994;-47
2022/01/26 07:31:06;;;;;;;;;11.00;10.50;;;;;20.77;30.78;103085.66;5065760;28;51040;-48
2022/01/26 07:33:32;;;;;;;;;15.00;13.00;;;;;20.79;31.08;103098.22;5074052;28;51180;-48
2022/01/26 07:35:58;;;;;;;;;14.25;14.00;;;;;20.85;30.94;103110.47;5076228;27;51458;-49
2022/01/26 07:38:25;;;;;;;;;11.50;10.75;;;;;20.85;30.98;103114.09;5077306;28;51035;-48
2022/01/26 07:40:50;;;;;;;;;17.75;13.75;;;;;20.89;30.96;103100.84;5077068;28;51090;-45
2022/01/26 07:43:15;;;;;;;;;19.50;14.75;;;;;20.94;30.86;103095.66;5060069;28;51578;-45
2022/01/26 07:45:41;;;;;;;;;22.25;18.50;;;;;20.98;31.31;103097.06;5057992;28;50915;-44
2022/01/26 07:48:08;;;;;;;;;21.75;14.75;;;;;21.03;31.02;103108.41;5076820;28;51137;-44
2022/01/26 07:50:33;;;;;;;;;19.00;15.75;;;;;21.07;30.74;103108.94;5067646;28;50932;-45
2022/01/26 07:53:00;;;;;;;;;22.75;19.25;;;;;21.10;30.59;103106.69;5068804;28;51831;-48
2022/01/26 07:55:25;;;;;;;;;23.50;22.00;;;;;21.16;30.53;103114.28;5065613;28;51130;-47
2022/01/26 07:57:52;;;;;;;;;25.00;21.00;;;;;21.18;30.71;103114.97;5054666;28;51040;-46
2022/01/26 08:00:19;;;;;;;;;24.25;20.50;;;;;21.21;30.39;103113.75;5055590;28;51102;-50
2022/01/26 08:02:45;;;;;;;;;23.75;20.00;;;;;21.25;30.52;103117.88;5056059;28;52909;-48
2022/01/26 08:05:12;;;;;;;;;28.50;20.75;;;;;21.29;30.17;103124.81;5056305;28;51325;-48
2022/01/26 08:07:37;;;;;;;;;19.50;16.75;;;;;21.35;30.22;103112.22;5056654;28;51150;-48
2022/01/26 08:10:04;;;;;;;;;26.50;19.75;;;;;21.40;30.32;103112.56;5056943;28;51229;-44
2022/01/26 08:12:30;;;;;;;;;22.00;18.75;;;;;21.47;30.35;103097.06;5057061;28;52103;-46
2022/01/26 08:14:56;;;;;;;;;19.25;16.25;;;;;21.52;29.93;103089.09;5064404;27;51115;-46
2022/01/26 08:17:21;;;;;;;;;20.50;17.50;;;;;21.57;30.42;103083.91;5057231;28;51154;-49
2022/01/26 08:19:51;;;;;;;;;22.00;17.00;;;;;21.59;30.30;103088.25;5065094;28;51087;-46
2022/01/26 08:22:19;;;;;;;;;18.25;17.00;;;;;21.63;30.16;103098.91;5066740;28;52863;-47
2022/01/26 08:24:44;;;;;;;;;20.50;19.50;;;;;21.67;30.10;103087.34;5052716;28;51300;-45
2022/01/26 08:27:12;;;;;;;;;15.50;14.75;;;;;21.71;30.09;103074.94;5069429;28;51272;-48
2022/01/26 08:30:07;;;;;;;;;15.50;12.50;;;;;21.76;29.76;103077.13;5070038;28;51092;-45
2022/01/26 08:32:24;;;;;;;;;13.75;13.50;;;;;21.79;29.65;103074.06;5062614;28;51819;-45
2022/01/26 08:34:49;;;;;;;;;21.25;15.00;;;;;21.80;30.17;103086.81;5068961;28;51044;-48
2022/01/26 08:37:14;;;;;;;;;25.75;21.50;;;;;21.76;30.08;103108.34;5078195;28;51048;-46
2022/01/26 08:39:40;;;;;;;;;23.50;19.25;;;;;21.70;29.87;103084.25;5073291;28;51155;-46
2022/01/26 08:42:06;;;;;;;;;19.50;18.50;;;;;21.61;30.04;103075.13;5065195;28;52125;-47
2022/01/26 08:44:35;;;;;;;;;20.75;17.75;;;;;21.55;29.83;103089.59;5069996;27;51128;-45
2022/01/26 08:47:05;;;;;;;;;19.25;17.00;;;;;21.52;29.85;103097.38;5077945;28;51117;-45
2022/01/26 08:49:31;;;;;;;;;19.50;16.75;;;;;21.45;29.61;103093.59;5065774;28;51327;-45
2022/01/26 08:51:56;;;;;;;;;20.75;15.00;;;;;21.41;29.68;103100.50;5066268;28;53993;-45
2022/01/26 08:54:22;;;;;;;;;22.00;17.75;;;;;21.37;29.79;103105.53;5065879;28;51190;-50
2022/01/26 08:56:52;;;;;;;;;18.25;15.50;;;;;21.33;29.97;103107.75;5068388;28;51259;-49
2022/01/26 08:59:18;;;;;;;;;19.25;15.75;;;;;21.30;29.76;103107.25;5067295;28;51025;-52
2022/01/26 09:01:44;;;;;;;;;21.25;14.25;;;;;21.27;29.60;103108.44;5060255;28;52005;-46
2022/01/26 09:04:09;;;;;;;;;18.25;17.25;;;;;21.24;29.82;103117.00;5062481;28;50943;-46
2022/01/26 09:06:39;;;;;;;;;17.75;15.50;;;;;21.22;29.83;103107.19;5066264;28;51047;-46
2022/01/26 09:09:07;;;;;;;;;17.25;15.75;;;;;21.19;29.85;103113.06;5059713;28;51108;-49
2022/01/26 09:11:35;;;;;;;;;24.50;18.50;;;;;21.15;29.73;103106.16;5059011;28;51557;-51
2022/01/26 09:14:07;;;;;;;;;18.00;15.25;;;;;21.10;29.85;103103.06;5090396;27;50925;-49
2022/01/26 09:16:33;;;;;;;;;14.25;12.75;;;;;21.07;30.16;103122.72;5067995;28;51089;-46
2022/01/26 09:19:05;;;;;;;;;22.00;18.25;;;;;21.02;29.88;103146.13;5069127;28;51198;-46
2022/01/26 09:21:31;;;;;;;;;34.50;30.00;;;;;20.96;29.72;103144.06;5077418;28;52677;-44
2022/01/26 09:23:56;;;;;;;;;40.75;34.75;;;;;20.91;29.57;103142.84;5077684;27;50980;-46
2022/01/26 09:26:21;;;;;;;;;39.75;32.50;;;;;20.84;29.56;103144.53;5072540;28;51023;-45
2022/01/26 09:28:47;;;;;;;;;40.25;30.25;;;;;20.78;29.26;103146.09;5063997;28;51017;-46
2022/01/26 09:31:13;;;;;;;;;44.00;34.00;;;;;20.72;29.58;103155.88;5057526;28;50874;-47
2022/01/26 09:33:38;;;;;;;;;48.00;36.00;;;;;20.67;29.10;103157.44;5057659;28;51915;-49
2022/01/26 09:36:04;;;;;;;;;47.50;36.00;;;;;20.60;28.74;103165.50;5061930;28;51116;-50
2022/01/26 09:38:29;;;;;;;;;39.00;33.50;;;;;20.53;28.86;103150.69;5073460;28;51066;-48
2022/01/26 09:40:55;;;;;;;;;51.00;37.50;;;;;20.46;28.34;103139.47;5068849;28;51141;-47
2022/01/26 09:43:20;;;;;;;;;46.75;38.50;;;;;20.42;28.46;103145.44;5057355;28;51086;-45
2022/01/26 09:45:46;;;;;;;;;45.75;38.50;;;;;20.42;28.33;103148.19;5077961;27;51098;-48
2022/01/26 09:48:13;;;;;;;;;34.50;30.25;;;;;20.44;28.36;103158.06;5065702;28;51018;-47
2022/01/26 09:50:44;;;;;;;;;33.75;29.75;;;;;20.51;28.51;103163.75;5071394;28;52927;-49
2022/01/26 09:53:12;;;;;;;;;38.75;33.50;;;;;20.58;28.87;103167.56;5061022;28;51378;-50
2022/01/26 09:55:43;;;;;;;;;32.50;23.75;;;;;20.67;28.52;103169.31;5066415;27;51122;-49
2022/01/26 09:58:09;;;;;;;;;25.75;23.00;;;;;20.72;28.77;103163.28;5069557;28;51072;-47
2022/01/26 10:00:35;;;;;;;;;24.75;22.75;;;;;20.79;28.91;103171.75;5056467;28;52706;-46
2022/01/26 10:03:03;;;;;;;;;26.75;24.00;;;;;20.85;28.47;103173.84;5063962;27;50996;-50
2022/01/26 10:05:44;;;;;;;;;25.75;20.00;;;;;20.93;28.74;103168.31;5066703;27;51151;-48
2022/01/26 10:08:50;;;;;;;;;21.25;18.00;;;;;20.99;28.63;103179.53;5061353;28;51135;-49
2022/01/26 10:19:04;;;;;;;;;23.75;22.50;;;;;21.24;28.50;103174.03;5062675;28;51338;-45
2022/01/26 10:21:30;;;;;;;;;23.25;16.75;;;;;21.29;29.30;103167.03;5061235;28;50976;-49
2022/01/26 10:23:59;;;;;;;;;19.50;16.25;;;;;21.33;29.84;103167.53;5059004;28;51145;-52
2022/01/26 10:26:25;;;;;;;;;16.50;15.00;;;;;21.37;29.84;103173.59;5058388;28;51036;-49
2022/01/26 10:28:53;;;;;;;;;16.50;15.25;;;;;21.41;30.38;103167.53;5061142;28;50969;-50
2022/01/26 10:31:26;;;;;;;;;13.75;13.50;;;;;21.45;30.45;103162.53;5073922;28;51079;-46
2022/01/26 10:33:57;;;;;;;;;15.00;13.00;;;;;21.49;30.02;103159.28;5069564;27;51164;-48
2022/01/26 10:36:23;;;;;;;;;22.25;15.00;;;;;21.54;30.50;103147.69;5076465;28;51126;-45
2022/01/26 10:39:00;;;;;;;;;16.00;14.25;;;;;21.56;30.62;103140.09;5076874;28;51013;-48
2022/01/26 10:41:25;;;;;;;;;20.50;18.00;;;;;21.56;30.80;103153.91;5076802;28;51014;-49
2022/01/26 10:43:53;;;;;;;;;16.00;13.75;;;;;21.57;30.98;103177.69;5057279;28;51251;-47
2022/01/26 10:46:28;;;;;;;;;20.50;16.75;;;;;21.59;30.63;103181.16;5063375;28;51058;-48
2022/01/26 10:49:42;;;;;;;;;14.50;14.50;;;;;21.61;30.56;103160.63;5058343;28;51334;-47
2022/01/26 10:51:55;;;;;;;;;16.00;11.00;;;;;21.67;31.32;103158.19;5058213;28;51562;-46
2022/01/26 10:54:45;;;;;;;;;12.50;12.00;;;;;21.71;30.92;103148.56;5056347;28;50984;-47
2022/01/26 10:57:12;;;;;;;;;15.50;13.25;;;;;21.77;30.86;103156.97;5050799;28;51127;-47
2022/01/26 10:59:49;;;;;;;;;12.25;12.00;;;;;21.82;31.22;103140.75;5067389;28;51200;-45
2022/01/26 11:02:28;;;;;;;;;13.25;12.25;;;;;21.86;30.74;103135.75;5057002;28;51930;-46
2022/01/26 11:04:54;;;;;;;;;15.50;11.50;;;;;21.87;31.00;103154.88;5076128;27;51115;-45
2022/01/26 11:07:19;;;;;;;;;12.50;11.25;;;;;21.89;31.21;103138.16;5059956;28;51107;-49
2022/01/26 11:09:48;;;;;;;;;17.50;13.00;;;;;21.90;31.30;103129.72;5058856;28;51242;-45
2022/01/26 11:12:16;;;;;;;;;18.50;16.00;;;;;21.93;31.10;103131.25;5056826;28;51815;-47
2022/01/26 11:14:45;;;;;;;;;12.25;9.25;;;;;21.95;30.92;103137.44;5056054;28;51389;-46
2022/01/26 11:17:23;;;;;;;;;13.50;11.75;;;;;21.97;31.10;103123.47;5061049;28;51448;-50
2022/01/26 11:19:48;;;;;;;;;13.50;11.75;;;;;21.99;31.33;103126.91;5063678;28;51039;-45
2022/01/26 11:22:15;;;;;;;;;16.00;13.00;;;;;22.00;31.47;103118.47;5075296;28;52681;-46
2022/01/26 11:24:46;;;;;;;;;15.75;13.00;;;;;22.02;31.15;103105.34;5076495;27;51294;-51
2022/01/26 11:27:14;;;;;;;;;11.25;9.25;;;;;22.04;31.53;103110.69;5047660;28;50943;-48
2022/01/26 11:29:44;;;;;;;;;16.75;11.75;;;;;22.05;30.99;103109.63;5061404;28;51164;-47
2022/01/26 11:32:39;;;;;;;;;17.00;14.00;;;;;22.07;31.25;103107.59;5073960;28;51991;-49
2022/01/26 11:35:08;;;;;;;;;16.75;14.25;;;;;22.10;31.04;103107.25;5075578;27;51463;-47
2022/01/26 11:38:02;;;;;;;;;12.50;11.75;;;;;22.10;30.95;103110.88;5073047;28;51111;-46
2022/01/26 11:46:07;;;;;;;;;16.75;12.75;;;;;21.94;31.18;103097.09;5061114;28;51021;-51
2022/01/26 11:48:33;;;;;;;;;18.25;13.00;;;;;21.88;30.82;103095.03;5046148;28;51003;-50
2022/01/26 11:51:01;;;;;;;;;18.50;14.00;;;;;21.82;30.71;103081.97;5057527;28;51072;-46
2022/01/26 11:53:29;;;;;;;;;14.75;13.00;;;;;21.74;31.26;103071.81;5072030;28;52489;-47
2022/01/26 11:56:02;;;;;;;;;14.25;13.25;;;;;21.66;30.76;103060.78;5058798;28;51101;-47
2022/01/26 11:58:29;;;;;;;;;16.50;14.25;;;;;21.59;30.69;103070.84;5056401;28;51090;-47
2022/01/26 12:03:43;;;;;;;;;21.00;14.75;;;;;21.45;30.91;103057.75;5054268;27;51039;-50
2022/01/26 12:06:18;;;;;;;;;15.50;14.50;;;;;21.38;31.32;103060.38;5068123;28;51480;-47
2022/01/26 12:08:44;;;;;;;;;14.50;12.75;;;;;21.31;31.16;103051.06;5076792;28;51245;-50
2022/01/26 12:11:12;;;;;;;;;15.75;13.75;;;;;21.25;31.57;103052.56;5076692;28;51379;-47
2022/01/26 12:13:39;;;;;;;;;18.25;13.50;;;;;21.21;31.22;103051.22;5058739;28;51197;-50
2022/01/26 12:16:12;;;;;;;;;16.00;12.75;;;;;21.17;31.35;103051.75;5069856;28;51528;-46
2022/01/26 12:18:51;;;;;;;;;13.50;10.75;;;;;21.10;31.49;103053.47;5065886;28;51042;-45
2022/01/26 12:35:40;;;;;;;;;15.00;14.00;;;;;20.77;32.05;103039.72;5059584;28;51110;-47
2022/01/26 12:38:19;;;;;;;;;19.50;14.75;;;;;20.72;31.81;103045.72;5056909;28;51461;-47
2022/01/26 12:43:44;;;;;;;;;14.75;14.00;;;;;20.64;32.28;103059.50;5064343;28;51104;-46
2022/01/26 12:46:31;;;;;;;;;19.50;15.75;;;;;20.60;31.98;103057.25;5069318;28;51665;-48
2022/01/26 12:49:04;;;;;;;;;16.50;14.00;;;;;20.56;31.97;103056.72;5062464;28;51452;-47
2022/01/26 12:51:31;;;;;;;;;14.25;12.75;;;;;20.53;32.10;103064.44;5069238;28;51028;-50
2022/01/26 12:54:02;;;;;;;;;18.50;15.75;;;;;20.49;31.89;103065.81;5074588;27;51222;-46
2022/01/26 12:56:30;;;;;;;;;17.00;14.00;;;;;20.45;31.75;103062.56;5057991;28;51118;-54
2022/01/26 12:59:05;;;;;;;;;16.50;14.00;;;;;20.41;32.23;103053.72;5065096;28;51358;-47
2022/01/26 13:01:31;;;;;;;;;16.50;16.50;;;;;20.38;32.09;103050.47;5060284;28;51022;-47
2022/01/26 13:03:59;;;;;;;;;16.00;14.50;;;;;20.35;31.87;103040.66;5058649;28;50994;-50
2022/01/26 13:06:31;;;;;;;;;14.75;12.25;;;;;20.33;31.84;103039.97;5067528;28;52625;-48
2022/01/26 13:08:59;;;;;;;;;18.00;15.25;;;;;20.30;31.93;103045.78;5065827;28;50964;-48
2022/01/26 13:11:30;;;;;;;;;15.75;13.50;;;;;20.27;32.28;103035.13;5086576;27;50943;-48
2022/01/26 13:14:26;;;;;;;;;17.50;14.00;;;;;20.25;32.17;103033.56;5069101;28;50994;-47
2022/01/26 13:20:01;;;;;;;;;16.50;13.75;;;;;20.20;32.03;103017.53;5065317;28;51588;-46
2022/01/26 13:23:03;;;;;;;;;22.25;16.25;;;;;20.17;32.32;103028.91;5065454;28;51297;-49